Newhebron, Mississippi
Current Conditions -  °F | °C
As of 6:54 AM on Saturday 20 Dec 2014 (Local Time) from KJAN Reporting Station
Overcast Overcast  
Wind Chill: 39°   Ceiling: 700
Heat Index: 43°   Visibility: 10mi
Dew Point: 41°   Wind: 6mph
Humidity: 93%   Direction: 30°NNE
Pressure: 30.2"   Gusts: NA
Location:  31.73°N, 89.98°W
Report Text: KJAN 201254Z 03005KT 10SM OVC007 06/05 A3020 RMK AO2 SLP228 T00610050
Loading
Personal Weather Stations






























Interactive Weather Map New forecast layout! Learn more

10-Day Weather Forecast

Advertisements
Track Severe Weather on mobile